Time;durP1;ratioP1;P1;durP2;ratioP2;P2;SDS_P1;SDS_P2;PMS_P1;PMS_P2;Temp;Humidity;BMP_temperature;BMP_pressure;BME280_temperature;BME280_humidity;BME280_pressure;Samples;Min_cycle;Max_cycle;Signal;HPM_P1;HPM_P2
2023/10/03 00:01:52;;;;;;;3.63;1.25;;;;;;;12.42;87.02;99569.38;5027048;28;20126;-61
2023/10/03 00:04:22;;;;;;;5.43;1.30;;;;;;;12.45;87.88;99598.09;5016186;28;20049;-61
2023/10/03 00:06:53;;;;;;;3.53;1.10;;;;;;;12.38;86.46;99594.00;5026723;28;20095;-61
2023/10/03 00:09:24;;;;;;;3.13;1.23;;;;;;;12.31;86.37;99589.88;4998183;28;20077;-62
2023/10/03 00:11:56;;;;;;;4.50;0.98;;;;;;;12.23;87.10;99591.88;5007490;28;20136;-63
2023/10/03 00:14:26;;;;;;;1.75;0.90;;;;;;;12.17;87.25;99597.34;4997735;28;20136;-64
2023/10/03 00:16:57;;;;;;;4.45;1.30;;;;;;;12.17;88.23;99607.81;5007635;28;20064;-61
2023/10/03 00:19:27;;;;;;;4.65;1.23;;;;;;;12.23;87.20;99623.31;4997038;28;20589;-61
2023/10/03 00:21:58;;;;;;;3.20;0.90;;;;;;;12.29;86.94;99602.16;5006931;28;20111;-60
2023/10/03 00:24:29;;;;;;;2.60;0.85;;;;;;;12.46;87.13;99626.03;5010031;28;20451;-66
2023/10/03 00:27:02;;;;;;;5.10;1.05;;;;;;;12.54;86.80;99622.28;5026389;28;20573;-66
2023/10/03 00:29:33;;;;;;;3.17;1.27;;;;;;;12.69;85.50;99611.28;4996146;28;20055;-63
2023/10/03 00:32:03;;;;;;;2.90;0.80;;;;;;;12.82;85.47;99617.78;5007262;28;20103;-61
2023/10/03 00:34:36;;;;;;;2.28;0.80;;;;;;;12.82;83.16;99609.06;5008612;28;20114;-58
2023/10/03 00:37:07;;;;;;;4.82;0.80;;;;;;;12.85;84.10;99625.53;5025802;28;20565;-67
2023/10/03 00:39:37;;;;;;;3.05;1.08;;;;;;;12.88;83.63;99627.19;5015450;28;20048;-64
2023/10/03 00:42:10;;;;;;;5.45;1.20;;;;;;;12.88;84.57;99638.56;5017738;28;20111;-61
2023/10/03 00:44:40;;;;;;;2.17;0.80;;;;;;;12.91;84.05;99637.59;5025371;28;20048;-60
2023/10/03 00:47:12;;;;;;;3.05;0.90;;;;;;;12.92;83.95;99640.13;5015505;28;20118;-62
2023/10/03 00:49:43;;;;;;;3.50;1.00;;;;;;;12.87;83.42;99642.06;5021366;28;20060;-62
2023/10/03 00:52:13;;;;;;;2.58;1.00;;;;;;;12.88;82.30;99651.66;4997039;28;20064;-63
2023/10/03 00:54:46;;;;;;;5.68;1.02;;;;;;;12.85;83.85;99654.38;5006528;28;20049;-65
2023/10/03 00:57:19;;;;;;;4.80;0.80;;;;;;;12.84;83.44;99650.03;4996933;28;20145;-64
2023/10/03 00:59:50;;;;;;;4.65;0.90;;;;;;;12.81;84.26;99665.03;5006417;28;20092;-64
2023/10/03 01:02:21;;;;;;;4.00;1.15;;;;;;;12.81;83.25;99663.28;4996872;28;20049;-66
2023/10/03 01:04:53;;;;;;;2.63;0.85;;;;;;;12.76;82.73;99680.94;5020057;28;20502;-58
2023/10/03 01:07:24;;;;;;;4.13;0.80;;;;;;;12.79;82.75;99665.09;5012550;28;20560;-64
2023/10/03 01:09:55;;;;;;;6.93;0.80;;;;;;;12.73;82.64;99660.91;5006199;28;20057;-61
2023/10/03 01:12:29;;;;;;;3.97;1.02;;;;;;;12.78;83.59;99684.34;4996324;28;20063;-61
2023/10/03 01:15:00;;;;;;;4.10;1.20;;;;;;;12.79;80.98;99675.56;5006053;28;20464;-62
2023/10/03 01:17:34;;;;;;;3.72;0.98;;;;;;;12.85;82.67;99675.34;4976389;28;20058;-65
2023/10/03 01:20:09;;;;;;;5.22;1.15;;;;;;;12.89;82.29;99678.72;4994173;28;20107;-61
2023/10/03 01:22:43;;;;;;;6.07;1.00;;;;;;;12.95;83.23;99697.75;5016041;28;20060;-61
2023/10/03 01:25:15;;;;;;;5.57;1.15;;;;;;;13.04;84.00;99690.44;5015261;28;20094;-68
2023/10/03 01:27:46;;;;;;;4.35;1.40;;;;;;;13.08;84.70;99692.03;5025096;28;20140;-59
2023/10/03 01:30:17;;;;;;;5.25;1.30;;;;;;;13.07;81.38;99695.56;5014630;28;20067;-61
2023/10/03 01:32:52;;;;;;;5.57;1.00;;;;;;;13.03;83.94;99681.72;5024822;28;20076;-61
2023/10/03 01:35:23;;;;;;;3.88;0.90;;;;;;;13.11;82.84;99713.78;5014364;28;20408;-63
2023/10/03 01:37:53;;;;;;;4.35;0.90;;;;;;;13.08;82.54;99713.00;5025245;28;20527;-60
2023/10/03 01:40:26;;;;;;;7.25;1.05;;;;;;;13.05;83.49;99726.25;5014651;28;20144;-59
2023/10/03 01:42:56;;;;;;;4.93;1.05;;;;;;;12.99;81.93;99718.59;5024490;28;20049;-59
2023/10/03 01:45:32;;;;;;;4.40;1.20;;;;;;;13.01;81.69;99729.91;5013129;28;25163;-59
2023/10/03 01:48:05;;;;;;;4.38;0.88;;;;;;;13.00;83.00;99736.03;5005720;28;20057;-58
2023/10/03 01:50:36;;;;;;;2.20;0.80;;;;;;;13.11;83.36;99733.91;5013920;28;20057;-58
2023/10/03 01:53:07;;;;;;;6.45;1.20;;;;;;;13.30;81.39;99740.22;5024501;28;20065;-57
2023/10/03 01:55:39;;;;;;;3.63;0.85;;;;;;;13.41;80.16;99728.50;5002256;28;20049;-60
2023/10/03 01:58:10;;;;;;;3.95;1.00;;;;;;;13.42;80.11;99738.09;4995283;28;20511;-58
2023/10/03 02:00:40;;;;;;;4.22;0.70;;;;;;;13.41;79.43;99731.97;5004941;28;20128;-60
2023/10/03 02:03:11;;;;;;;2.13;0.75;;;;;;;13.42;77.44;99738.09;4995003;28;20738;-58
2023/10/03 02:05:43;;;;;;;3.78;1.05;;;;;;;13.48;79.24;99749.22;5009233;28;20833;-64
2023/10/03 02:08:15;;;;;;;4.90;0.90;;;;;;;13.66;80.50;99755.56;5004760;28;20061;-59
2023/10/03 02:10:49;;;;;;;2.10;0.93;;;;;;;13.68;79.27;99751.13;5005545;28;20041;-60
2023/10/03 02:13:22;;;;;;;2.45;0.77;;;;;;;13.85;80.83;99762.72;4994367;28;20063;-59
2023/10/03 02:15:56;;;;;;;2.80;0.77;;;;;;;13.28;79.90;99679.09;5008550;28;20053;-60
2023/10/03 02:18:26;;;;;;;3.50;1.00;;;;;;;13.98;80.30;99774.50;5014368;28;20118;-57
2023/10/03 02:21:01;;;;;;;5.40;1.00;;;;;;;13.72;79.45;99726.44;5017512;28;20448;-62
2023/10/03 02:23:32;;;;;;;5.47;1.37;;;;;;;14.15;77.88;99782.59;4995206;28;20521;-60
2023/10/03 02:26:10;;;;;;;4.80;1.10;;;;;;;14.19;79.50;99789.44;5004528;28;20298;-61
2023/10/03 02:28:42;;;;;;;3.40;1.00;;;;;;;14.12;79.00;99789.72;5014506;28;20288;-57
2023/10/03 02:31:15;;;;;;;3.67;0.95;;;;;;;13.96;77.87;99802.59;5014153;28;20232;-63
2023/10/03 02:33:45;;;;;;;5.35;1.00;;;;;;;13.75;78.35;99788.47;5023830;28;20079;-58
2023/10/03 02:36:16;;;;;;;4.95;0.80;;;;;;;13.53;77.96;99780.56;5014277;28;20483;-59
2023/10/03 02:38:47;;;;;;;2.07;0.70;;;;;;;13.53;78.03;99804.19;5024020;28;20150;-58
2023/10/03 02:41:19;;;;;;;5.13;0.95;;;;;;;13.51;79.75;99813.88;5014517;28;20712;-58
2023/10/03 02:43:51;;;;;;;1.55;0.88;;;;;;;13.53;79.32;99801.56;5024130;28;20122;-57
2023/10/03 02:46:22;;;;;;;3.72;1.13;;;;;;;13.55;80.10;99812.84;5013332;28;20096;-57
2023/10/03 02:48:55;;;;;;;3.67;0.70;;;;;;;13.55;77.79;99810.22;5023533;28;20053;-58
2023/10/03 02:51:26;;;;;;;3.78;0.85;;;;;;;13.49;79.09;99828.81;5013264;28;20319;-60
2023/10/03 02:53:56;;;;;;;4.78;0.80;;;;;;;13.41;78.38;99820.38;5023585;28;20061;-59
2023/10/03 02:56:28;;;;;;;3.13;0.82;;;;;;;13.40;79.50;99826.50;5013479;28;20387;-62
2023/10/03 02:58:59;;;;;;;1.88;0.70;;;;;;;13.43;78.99;99823.75;5023734;28;20064;-66
2023/10/03 03:01:31;;;;;;;3.72;0.88;;;;;;;13.50;78.38;99820.00;5013153;28;20106;-60
2023/10/03 03:04:02;;;;;;;6.05;0.85;;;;;;;13.60;79.81;99826.66;5023489;28;20144;-63
2023/10/03 03:06:33;;;;;;;3.30;0.73;;;;;;;13.75;79.85;99826.13;5013391;28;20057;-63
2023/10/03 03:09:06;;;;;;;2.72;0.85;;;;;;;13.84;77.55;99813.56;5007090;28;20057;-61
2023/10/03 03:11:48;;;;;;;2.97;0.80;;;;;;;13.81;77.82;99819.78;4982170;28;20057;-58
2023/10/03 03:14:19;;;;;;;4.20;1.15;;;;;;;13.77;77.20;99813.75;4994239;28;20666;-59
2023/10/03 03:16:50;;;;;;;4.35;0.98;;;;;;;13.73;77.58;99827.94;5004328;28;20429;-62
2023/10/03 03:19:20;;;;;;;5.28;0.80;;;;;;;13.82;77.91;99837.25;4994727;28;20073;-62
2023/10/03 03:21:51;;;;;;;3.00;0.73;;;;;;;13.89;76.05;99828.22;5003947;28;20054;-60
2023/10/03 03:24:28;;;;;;;2.63;0.80;;;;;;;14.11;77.43;99830.91;4995043;28;20060;-61
2023/10/03 03:27:00;;;;;;;2.55;0.80;;;;;;;14.28;76.34;99825.03;5011329;28;20128;-65
2023/10/03 03:29:35;;;;;;;2.10;0.60;;;;;;;14.31;74.50;99831.94;5008774;28;20046;-60
2023/10/03 03:32:06;;;;;;;2.47;0.60;;;;;;;14.40;74.18;99839.44;5003720;28;20049;-60
2023/10/03 03:34:37;;;;;;;1.80;0.50;;;;;;;14.37;73.43;99839.56;4993556;28;20286;-61
2023/10/03 03:37:21;;;;;;;2.08;0.70;;;;;;;14.47;75.64;99846.16;5009561;28;20280;-61
2023/10/03 03:39:56;;;;;;;1.58;0.60;;;;;;;14.50;74.90;99859.19;5003484;28;20144;-59
2023/10/03 03:42:29;;;;;;;1.73;0.50;;;;;;;14.40;75.65;99861.34;4994249;28;20057;-57
2023/10/03 03:45:01;;;;;;;2.47;0.40;;;;;;;14.20;72.28;99864.72;5004173;28;20303;-61
2023/10/03 03:47:33;;;;;;;4.17;0.60;;;;;;;14.15;74.20;99861.41;4994488;28;20302;-59
2023/10/03 03:50:10;;;;;;;1.70;0.60;;;;;;;13.97;73.89;99867.34;5004595;28;20375;-62
2023/10/03 03:52:41;;;;;;;1.58;0.50;;;;;;;13.86;74.99;99869.50;5006683;28;20276;-59
2023/10/03 03:55:12;;;;;;;2.60;0.75;;;;;;;13.95;75.56;99880.53;5013147;28;20052;-61
2023/10/03 03:57:45;;;;;;;2.85;0.50;;;;;;;14.08;73.82;99893.19;5023269;28;20079;-58
2023/10/03 04:00:19;;;;;;;4.10;1.08;;;;;;;14.29;72.82;99879.28;5013305;28;20144;-59
2023/10/03 04:02:50;;;;;;;2.80;0.70;;;;;;;14.39;75.39;99900.81;5023263;28;20154;-60
2023/10/03 04:05:21;;;;;;;1.77;0.50;;;;;;;14.34;74.79;99908.03;5014950;28;20326;-59
2023/10/03 04:07:53;;;;;;;2.15;0.65;;;;;;;14.24;76.95;99908.34;5020723;28;20297;-59
2023/10/03 04:10:23;;;;;;;2.30;0.77;;;;;;;14.15;75.09;99903.47;4998363;28;20443;-60
2023/10/03 04:12:55;;;;;;;2.50;0.63;;;;;;;14.01;75.61;99926.75;5006782;28;20315;-60
2023/10/03 04:15:26;;;;;;;4.90;1.00;;;;;;;13.89;74.29;99932.44;4997762;28;21142;-59
2023/10/03 04:17:56;;;;;;;2.78;0.93;;;;;;;13.91;75.87;99927.97;5007042;28;20292;-59
2023/10/03 04:20:30;;;;;;;7.13;1.10;;;;;;;13.99;75.71;99939.06;5000448;28;20128;-59
2023/10/03 04:23:02;;;;;;;3.22;0.82;;;;;;;13.93;74.32;99928.78;5026919;28;20287;-61
2023/10/03 04:25:33;;;;;;;5.33;0.90;;;;;;;13.84;77.10;99939.63;5016494;28;20057;-60
2023/10/03 04:28:06;;;;;;;5.90;0.87;;;;;;;13.78;78.20;99938.91;5026323;28;20331;-60
2023/10/03 04:30:39;;;;;;;3.70;0.80;;;;;;;13.76;77.66;99951.25;5015643;28;20283;-59
2023/10/03 04:33:09;;;;;;;3.85;0.93;;;;;;;13.54;77.16;99952.88;5016152;28;20091;-59
2023/10/03 04:35:42;;;;;;;4.60;0.97;;;;;;;13.36;78.37;99949.09;5025780;28;20060;-58
2023/10/03 04:38:15;;;;;;;5.15;0.80;;;;;;;13.35;80.54;99974.50;5015874;28;20287;-61
2023/10/03 04:40:47;;;;;;;3.63;0.90;;;;;;;13.45;81.08;99969.78;5026316;28;20778;-61
2023/10/03 04:43:20;;;;;;;4.43;0.80;;;;;;;13.60;80.53;99973.66;5015512;28;20232;-59
2023/10/03 04:45:51;;;;;;;5.47;0.73;;;;;;;13.47;78.91;99977.59;5025830;28;20081;-60
2023/10/03 04:48:22;;;;;;;7.33;1.10;;;;;;;13.33;78.01;99981.56;5015348;28;20383;-58
2023/10/03 04:50:53;;;;;;;3.03;0.88;;;;;;;13.36;77.91;99981.44;5025866;28;20773;-58
2023/10/03 04:53:23;;;;;;;3.08;1.10;;;;;;;13.46;78.78;99981.16;5015432;28;20955;-59
2023/10/03 04:55:54;;;;;;;4.13;0.70;;;;;;;13.65;78.91;99987.47;5025945;28;20076;-60
2023/10/03 04:58:26;;;;;;;4.90;0.75;;;;;;;13.73;79.65;99998.63;5014932;28;20057;-60
2023/10/03 05:00:56;;;;;;;3.72;1.05;;;;;;;13.72;79.15;99993.41;5025164;28;20234;-59
2023/10/03 05:03:28;;;;;;;2.50;1.02;;;;;;;13.50;79.16;99980.13;5015553;28;20072;-59
2023/10/03 05:06:01;;;;;;;2.33;0.90;;;;;;;13.52;80.14;100012.44;5009538;28;20107;-59
2023/10/03 05:08:31;;;;;;;6.80;0.82;;;;;;;13.35;82.10;100018.22;4996004;28;20558;-59
2023/10/03 05:11:03;;;;;;;8.95;1.30;;;;;;;13.24;82.33;100023.78;5006775;28;20049;-62
2023/10/03 05:13:36;;;;;;;5.22;0.82;;;;;;;13.12;82.80;100013.66;5014985;28;20140;-59
2023/10/03 05:16:07;;;;;;;3.07;1.03;;;;;;;13.05;82.66;100043.59;5024800;28;20094;-57
2023/10/03 05:18:39;;;;;;;5.10;1.10;;;;;;;12.90;82.89;100030.06;5014167;28;20754;-60
2023/10/03 05:21:10;;;;;;;6.07;1.05;;;;;;;12.83;83.46;100039.00;5014141;28;20053;-59
2023/10/03 05:23:41;;;;;;;5.32;1.17;;;;;;;12.76;83.68;100029.59;5024866;28;20049;-59
2023/10/03 05:26:12;;;;;;;4.60;0.90;;;;;;;12.90;82.74;100035.31;5015196;28;20060;-59
2023/10/03 05:28:44;;;;;;;1.58;0.75;;;;;;;12.99;82.72;100030.69;5025668;28;20049;-60
2023/10/03 05:31:15;;;;;;;5.45;0.88;;;;;;;13.04;80.81;100031.41;5015352;28;20122;-59
2023/10/03 05:33:45;;;;;;;1.75;0.70;;;;;;;13.21;79.43;100042.25;5025240;28;20498;-61
2023/10/03 05:36:18;;;;;;;1.98;0.85;;;;;;;13.34;78.95;100054.09;5015191;28;20059;-59
2023/10/03 05:38:49;;;;;;;5.47;1.08;;;;;;;13.36;77.32;100044.44;5024936;28;20455;-58
2023/10/03 05:41:23;;;;;;;3.55;0.70;;;;;;;13.37;77.73;100051.38;5014521;28;20053;-60
2023/10/03 05:43:55;;;;;;;4.65;1.00;;;;;;;13.45;78.31;100048.50;5025176;28;20048;-58
2023/10/03 05:46:25;;;;;;;4.03;0.85;;;;;;;13.47;76.65;100051.09;5015076;28;20080;-60
2023/10/03 05:48:56;;;;;;;9.85;1.20;;;;;;;13.34;76.55;100048.84;5025096;28;20060;-60
2023/10/03 05:51:26;;;;;;;5.22;1.00;;;;;;;13.21;76.26;100068.50;5014483;28;20063;-59
2023/10/03 05:53:57;;;;;;;4.93;1.33;;;;;;;13.02;74.05;100070.78;5024637;28;20999;-60
2023/10/03 05:56:27;;;;;;;5.07;1.20;;;;;;;12.70;75.48;100029.78;5014989;28;20049;-59
2023/10/03 05:59:01;;;;;;;3.47;0.82;;;;;;;13.01;75.94;100073.47;5025092;28;20067;-61
2023/10/03 06:01:32;;;;;;;4.57;1.10;;;;;;;13.15;76.49;100081.78;4995035;28;20049;-59
2023/10/03 06:04:03;;;;;;;3.00;0.90;;;;;;;13.18;75.58;100092.19;5005088;28;20049;-58
2023/10/03 06:06:34;;;;;;;5.25;1.40;;;;;;;13.29;76.03;100103.25;5002628;28;20053;-59
2023/10/03 06:09:05;;;;;;;2.13;0.90;;;;;;;13.41;74.65;100088.06;5013389;28;20045;-59
2023/10/03 06:11:36;;;;;;;5.07;0.73;;;;;;;13.44;73.74;100098.44;5013988;28;20202;-63
2023/10/03 06:14:08;;;;;;;4.80;1.30;;;;;;;13.38;75.13;100097.72;5024155;28;20064;-57
2023/10/03 06:16:39;;;;;;;6.55;1.08;;;;;;;13.26;73.82;100095.44;5014101;28;20714;-59
2023/10/03 06:19:10;;;;;;;6.40;1.35;;;;;;;13.11;74.27;100091.50;5013605;28;20075;-59
2023/10/03 06:21:41;;;;;;;7.32;1.00;;;;;;;13.03;74.86;100104.00;5011398;28;20144;-60
2023/10/03 06:24:12;;;;;;;2.63;0.80;;;;;;;13.03;75.46;100114.50;4995571;28;20091;-60
2023/10/03 06:26:44;;;;;;;4.47;0.90;;;;;;;12.97;75.75;100108.56;5004233;28;20072;-60
2023/10/03 06:29:20;;;;;;;5.47;1.20;;;;;;;13.06;75.05;100121.41;4995384;28;20060;-59
2023/10/03 06:31:52;;;;;;;6.07;1.23;;;;;;;13.23;74.94;100126.16;5005579;28;20498;-58
2023/10/03 06:34:25;;;;;;;3.70;1.35;;;;;;;13.35;74.12;100137.19;4996682;28;20435;-58
2023/10/03 06:36:56;;;;;;;5.47;1.45;;;;;;;13.38;72.48;100126.59;5023863;28;20045;-60
2023/10/03 06:39:26;;;;;;;5.55;1.30;;;;;;;13.31;72.73;100140.81;5013400;28;20057;-59
2023/10/03 06:41:58;;;;;;;5.10;1.25;;;;;;;13.29;74.48;100142.59;5023723;28;20156;-60
2023/10/03 06:44:30;;;;;;;4.63;1.30;;;;;;;13.22;73.09;100154.16;5013769;28;20058;-63
2023/10/03 06:47:03;;;;;;;3.00;1.30;;;;;;;13.11;72.70;100154.47;5024511;28;20048;-59
2023/10/03 06:49:34;;;;;;;6.53;1.50;;;;;;;12.90;73.52;100163.81;5013248;28;20072;-58
2023/10/03 06:52:05;;;;;;;5.43;1.90;;;;;;;12.69;74.04;100161.75;5023898;28;20059;-57
2023/10/03 06:54:35;;;;;;;5.28;2.03;;;;;;;12.58;74.24;100185.66;5013418;28;20434;-59
2023/10/03 06:57:07;;;;;;;5.10;2.35;;;;;;;12.55;75.60;100195.31;5019415;28;20507;-61
2023/10/03 06:59:39;;;;;;;6.40;1.70;;;;;;;12.50;75.98;100198.06;5012694;28;20349;-58
2023/10/03 07:02:10;;;;;;;7.25;1.88;;;;;;;12.50;76.87;100204.19;5013338;28;20502;-60
2023/10/03 07:04:40;;;;;;;5.97;1.77;;;;;;;12.48;76.92;100203.34;5023524;28;20375;-60
2023/10/03 07:07:11;;;;;;;6.65;1.98;;;;;;;12.47;76.01;100209.47;5012440;28;20462;-60
2023/10/03 07:09:41;;;;;;;6.70;2.10;;;;;;;12.41;75.79;100214.03;5003868;28;20442;-60
2023/10/03 07:12:11;;;;;;;5.32;1.88;;;;;;;12.39;77.72;100221.06;4994477;28;20061;-62
2023/10/03 07:14:46;;;;;;;5.97;1.90;;;;;;;12.37;77.32;100222.84;5004399;28;20144;-60
2023/10/03 07:17:16;;;;;;;9.93;3.00;;;;;;;12.32;77.21;100228.22;5013479;28;20545;-60
2023/10/03 07:19:48;;;;;;;6.55;1.90;;;;;;;12.32;76.77;100225.59;5023699;28;20590;-59
2023/10/03 07:22:20;;;;;;;5.47;2.20;;;;;;;12.33;76.62;100232.56;5013400;28;20080;-60
2023/10/03 07:24:51;;;;;;;5.05;2.20;;;;;;;12.17;77.03;100218.09;5022947;28;20487;-58
2023/10/03 07:27:21;;;;;;;7.47;1.88;;;;;;;12.33;76.93;100247.41;5013342;28;20080;-59
2023/10/03 07:29:53;;;;;;;7.05;2.55;;;;;;;12.30;77.79;100243.09;5023220;28;20155;-62
2023/10/03 07:32:24;;;;;;;6.10;2.10;;;;;;;12.26;77.93;100242.31;5012886;28;20048;-60
2023/10/03 07:34:57;;;;;;;6.40;2.08;;;;;;;12.18;77.08;100241.66;5023862;28;20057;-60
2023/10/03 07:37:27;;;;;;;9.70;2.65;;;;;;;12.03;77.74;100235.00;5013625;28;20091;-60
2023/10/03 07:39:58;;;;;;;6.53;2.10;;;;;;;11.91;79.14;100240.50;5027349;28;20079;-59
2023/10/03 07:42:28;;;;;;;6.95;2.03;;;;;;;11.79;79.61;100253.84;5017687;28;20503;-63
2023/10/03 07:45:00;;;;;;;4.60;1.98;;;;;;;11.70;80.15;100261.88;5027253;28;20061;-59
2023/10/03 07:47:31;;;;;;;5.43;2.30;;;;;;;11.60;80.44;100262.06;5017525;28;20099;-62
2023/10/03 07:50:02;;;;;;;9.65;2.78;;;;;;;11.53;80.42;100265.72;5027629;28;20136;-60
2023/10/03 07:52:34;;;;;;;3.75;2.25;;;;;;;11.45;80.66;100270.22;5017256;28;20107;-60
2023/10/03 07:55:05;;;;;;;6.00;2.60;;;;;;;11.40;81.39;100274.69;5027543;28;20056;-60
2023/10/03 07:57:37;;;;;;;11.88;2.50;;;;;;;11.30;81.79;100278.38;4997591;28;20057;-60
2023/10/03 08:00:19;;;;;;;6.97;2.67;;;;;;;11.19;82.13;100291.66;5004463;28;20053;-61
2023/10/03 08:02:50;;;;;;;4.72;2.25;;;;;;;11.14;82.72;100296.13;5008060;28;20072;-61
2023/10/03 08:05:27;;;;;;;4.80;1.90;;;;;;;11.01;82.90;100298.09;4999570;28;20107;-61
2023/10/03 08:07:58;;;;;;;7.50;2.42;;;;;;;11.00;83.24;100306.81;5019692;28;20815;-61
2023/10/03 08:10:30;;;;;;;4.15;2.47;;;;;;;10.96;83.56;100305.16;4997716;28;20054;-63
2023/10/03 08:13:02;;;;;;;6.40;2.72;;;;;;;10.90;83.79;100310.47;5007211;28;20144;-61
2023/10/03 08:15:34;;;;;;;5.68;2.47;;;;;;;10.88;83.54;100317.47;5003701;28;20048;-60
2023/10/03 08:18:17;;;;;;;5.03;2.58;;;;;;;10.86;83.89;100314.00;5026305;28;20080;-61
2023/10/03 08:20:53;;;;;;;9.60;2.97;;;;;;;10.80;83.60;100321.06;5016112;28;20079;-61
2023/10/03 08:23:24;;;;;;;5.43;3.03;;;;;;;10.75;83.93;100330.72;5016271;28;20146;-61
2023/10/03 08:26:01;;;;;;;6.10;2.63;;;;;;;10.70;84.03;100329.94;5026418;28;20045;-61
2023/10/03 08:28:32;;;;;;;5.30;2.78;;;;;;;10.66;84.32;100341.34;4996222;28;20107;-61
2023/10/03 08:31:08;;;;;;;7.20;2.75;;;;;;;10.60;84.83;100344.03;5022669;28;20057;-59
2023/10/03 08:33:38;;;;;;;4.93;2.92;;;;;;;10.56;85.30;100355.44;5015687;28;20155;-58
2023/10/03 08:36:14;;;;;;;6.32;3.05;;;;;;;10.51;85.55;100359.88;5016741;28;20463;-61
2023/10/03 08:38:45;;;;;;;7.38;3.08;;;;;;;10.43;86.08;100361.72;5026020;28;20072;-61
2023/10/03 08:41:24;;;;;;;8.02;3.40;;;;;;;10.09;86.88;100316.03;5016828;28;20403;-60
2023/10/03 08:43:57;;;;;;;6.20;2.80;;;;;;;10.04;86.61;100317.84;5026460;28;20048;-59
2023/10/03 08:46:36;;;;;;;6.55;2.67;;;;;;;10.23;87.58;100360.22;5016014;28;20049;-59
2023/10/03 08:49:12;;;;;;;5.55;2.83;;;;;;;10.24;87.49;100371.53;5023368;28;20040;-61
2023/10/03 08:51:43;;;;;;;5.78;3.08;;;;;;;10.11;87.97;100376.06;5004051;28;20163;-59
2023/10/03 08:54:18;;;;;;;6.75;2.95;;;;;;;10.08;88.58;100386.53;5015002;28;20060;-60
2023/10/03 08:56:48;;;;;;;9.25;3.25;;;;;;;10.05;88.62;100386.56;5025487;28;20056;-60
2023/10/03 08:59:21;;;;;;;8.55;4.07;;;;;;;9.99;89.35;100392.72;5015376;28;20045;-60
2023/10/03 09:01:53;;;;;;;8.20;3.40;;;;;;;9.89;90.15;100391.97;5024692;28;20085;-58
2023/10/03 09:04:56;;;;;;;6.85;2.85;;;;;;;9.78;91.34;100393.81;5014361;28;20087;-60
2023/10/03 09:07:30;;;;;;;6.82;3.40;;;;;;;9.62;92.21;100381.84;4972214;28;20168;-60
2023/10/03 09:10:08;;;;;;;13.45;4.68;;;;;;;9.58;92.85;100403.63;5005121;28;20076;-61
2023/10/03 09:12:42;;;;;;;13.70;6.82;;;;;;;9.54;93.48;100409.75;4995232;28;20408;-58
2023/10/03 09:15:23;;;;;;;11.02;7.22;;;;;;;9.43;94.14;100412.44;5000664;28;20055;-61
2023/10/03 09:18:01;;;;;;;8.25;3.38;;;;;;;9.32;94.95;100415.16;5025356;28;20061;-60
2023/10/03 09:20:34;;;;;;;8.20;3.65;;;;;;;9.25;96.05;100416.94;5015417;28;20160;-59
2023/10/03 09:23:17;;;;;;;11.43;6.25;;;;;;;9.10;96.75;100408.41;5021464;28;20057;-60
2023/10/03 09:29:18;;;;;;;7.88;5.00;;;;;;;9.20;97.14;100436.13;4926137;28;20065;-60
2023/10/03 09:32:07;;;;;;;8.20;3.40;;;;;;;9.33;96.15;100440.34;4956095;28;20137;-61
2023/10/03 09:34:56;;;;;;;4.28;2.70;;;;;;;9.41;95.29;100449.00;4934968;28;20058;-61
2023/10/03 09:37:32;;;;;;;9.70;3.80;;;;;;;9.52;93.97;100437.59;4934923;28;20149;-61
2023/10/03 09:40:16;;;;;;;5.72;3.08;;;;;;;9.64;92.74;100443.56;4960164;28;20089;-60
2023/10/03 09:42:50;;;;;;;7.45;3.03;;;;;;;9.75;91.78;100440.84;4949588;28;20146;-60
2023/10/03 09:45:26;;;;;;;6.55;3.17;;;;;;;9.76;91.58;100442.59;4944199;28;20651;-61
2023/10/03 09:48:29;;;;;;;5.38;2.75;;;;;;;9.68;91.72;100441.78;4961327;28;20077;-59
2023/10/03 09:52:03;;;;;;;6.28;3.05;;;;;;;9.60;91.67;100435.78;4931971;28;20066;-60
2023/10/03 09:55:17;;;;;;;6.90;3.05;;;;;;;9.52;92.09;100451.50;4932441;28;20051;-60
2023/10/03 09:58:38;;;;;;;7.35;2.70;;;;;;;9.54;92.26;100461.94;4948317;28;20520;-60
2023/10/03 10:01:14;;;;;;;8.13;3.00;;;;;;;9.26;92.41;100423.03;4893346;29;20518;-60
2023/10/03 10:03:52;;;;;;;10.55;5.70;;;;;;;9.38;91.96;100451.59;4910031;29;20070;-60
2023/10/03 10:06:39;;;;;;;15.48;6.28;;;;;;;9.31;92.62;100473.44;4902895;28;20069;-60
2023/10/03 10:09:27;;;;;;;13.98;6.35;;;;;;;8.68;93.58;100394.81;4896745;28;20142;-61
2023/10/03 10:12:20;;;;;;;12.10;5.53;;;;;;;9.19;95.04;100487.41;4924208;28;20149;-61
2023/10/03 10:15:17;;;;;;;11.75;5.97;;;;;;;9.13;95.68;100491.78;4909679;28;20070;-61
2023/10/03 10:17:56;;;;;;;14.18;4.65;;;;;;;9.02;96.25;100492.72;4922758;28;20824;-60
2023/10/03 10:21:06;;;;;;;7.47;4.57;;;;;;;9.03;96.56;100501.41;4889320;28;20067;-62
2023/10/03 10:23:40;;;;;;;10.30;4.80;;;;;;;8.86;96.81;100491.06;4923771;28;20058;-61
2023/10/03 10:26:30;;;;;;;7.07;3.53;;;;;;;8.81;96.96;100516.28;4928694;28;20050;-63
2023/10/03 10:29:08;;;;;;;7.20;4.57;;;;;;;8.62;98.15;100521.59;4927485;28;20122;-61
2023/10/03 10:31:44;;;;;;;9.48;4.55;;;;;;;8.50;98.66;100521.66;4920410;28;20059;-60
2023/10/03 10:34:35;;;;;;;14.98;4.82;;;;;;;8.40;99.23;100535.56;4920220;28;20054;-61
2023/10/03 10:37:09;;;;;;;8.80;4.68;;;;;;;8.24;99.88;100528.63;4941108;28;20045;-63
2023/10/03 10:40:21;;;;;;;10.07;4.35;;;;;;;8.11;100.00;100528.69;4998998;28;20063;-63
2023/10/03 10:43:06;;;;;;;8.95;4.38;;;;;;;8.00;100.00;100525.22;5023644;28;20037;-60
2023/10/03 10:45:42;;;;;;;7.95;4.38;;;;;;;7.75;100.00;100494.03;5019009;28;20049;-61
2023/10/03 10:48:15;;;;;;;10.85;4.93;;;;;;;7.95;100.00;100545.19;4997643;28;20068;-61
2023/10/03 10:51:14;;;;;;;8.85;4.20;;;;;;;7.87;100.00;100534.78;5010136;28;20369;-60
2023/10/03 10:53:47;;;;;;;;;;;;;;;7.78;100.00;100546.03;5008321;28;20048;-62
2023/10/03 10:56:22;;;;;;;9.43;4.35;;;;;;;7.66;100.00;100546.09;5008082;28;20031;-61
2023/10/03 10:59:01;;;;;;;6.88;4.07;;;;;;;7.50;100.00;100544.31;5019000;28;20144;-61
2023/10/03 11:01:41;;;;;;;9.40;3.38;;;;;;;7.34;100.00;100544.31;5007406;28;20056;-60
2023/10/03 11:04:25;;;;;;;12.90;4.07;;;;;;;7.23;100.00;100540.81;5013055;28;20751;-61
2023/10/03 11:06:56;;;;;;;8.32;3.53;;;;;;;6.55;100.00;100424.66;5027917;28;20057;-60
2023/10/03 11:09:29;;;;;;;16.05;3.95;;;;;;;7.25;100.00;100549.50;5017174;28;20259;-62
2023/10/03 11:12:04;;;;;;;7.80;3.67;;;;;;;7.23;100.00;100546.00;5027647;28;20053;-61
2023/10/03 11:14:36;;;;;;;8.35;3.92;;;;;;;7.19;100.00;100554.69;5011376;28;20052;-61
2023/10/03 11:17:09;;;;;;;14.48;5.82;;;;;;;7.11;100.00;100540.78;5022205;28;20090;-60
2023/10/03 11:19:41;;;;;;;12.02;6.15;;;;;;;7.31;100.00;100565.13;5022365;28;20049;-63
2023/10/03 11:22:13;;;;;;;12.85;6.00;;;;;;;7.41;100.00;100565.09;5021943;28;20556;-62
2023/10/03 11:24:45;;;;;;;12.75;6.10;;;;;;;7.40;100.00;100553.00;5031108;28;20063;-63
2023/10/03 11:27:30;;;;;;;12.57;6.20;;;;;;;7.43;100.00;100573.78;5022394;28;20126;-62
2023/10/03 11:30:15;;;;;;;7.50;3.83;;;;;;;7.33;100.00;100570.28;5032539;28;20053;-61
2023/10/03 11:32:48;;;;;;;10.85;5.95;;;;;;;7.30;100.00;100573.75;5022287;28;20048;-62
2023/10/03 11:35:21;;;;;;;12.25;5.80;;;;;;;7.27;100.00;100578.97;5022199;28;20121;-62
2023/10/03 11:37:54;;;;;;;6.68;4.07;;;;;;;7.19;100.00;100575.47;5033046;28;20410;-63
2023/10/03 11:40:28;;;;;;;7.45;3.38;;;;;;;7.09;100.00;100584.13;5021794;28;20045;-63
2023/10/03 11:43:08;;;;;;;9.85;4.63;;;;;;;7.01;100.00;100581.47;5032480;28;20165;-62
2023/10/03 11:45:39;;;;;;;7.97;4.00;;;;;;;7.09;100.00;100573.72;5021902;28;20063;-60
2023/10/03 11:48:17;;;;;;;8.02;4.60;;;;;;;7.12;100.00;100568.53;5022136;28;20179;-63
2023/10/03 11:50:49;;;;;;;6.68;3.53;;;;;;;7.12;100.00;100578.94;5032126;28;20151;-60
2023/10/03 11:53:21;;;;;;;8.32;4.38;;;;;;;7.11;100.00;100571.97;5021787;28;20118;-62
2023/10/03 11:55:56;;;;;;;8.02;4.03;;;;;;;6.38;100.00;100454.00;5032492;28;20048;-61
2023/10/03 11:58:30;;;;;;;5.03;3.67;;;;;;;7.07;100.00;100583.25;5021681;28;20072;-61
2023/10/03 12:01:03;;;;;;;10.38;3.40;;;;;;;7.07;100.00;100575.44;5031628;28;20073;-59
2023/10/03 12:03:37;;;;;;;11.18;4.38;;;;;;;7.03;100.00;100584.09;5005270;28;20132;-63
2023/10/03 12:06:09;;;;;;;9.38;4.03;;;;;;;6.99;100.00;100587.53;5011686;28;20057;-62